Ana Sayfa
METAR-TAF:

METAR-TAF

Havaalanları :

Kerpe, Yunanistan

Enlem: 35-24-51N, Boylam: 027-08-54E, yükseklik: 6 m

Güncel hava durumu gözlemi

Rapor saat 18:50 UTC de 15 dakika önce yapıldı.
Rüzgar kuzeydan 5 kt, kuzeybatı ve kuzey/kuzeydoğu arasında değişken
Sıcaklık 22°C
Nem 88%
Basınç 1017 hPa
hafif yağmur

METAR: LGKP 181850Z AUTO 36005KT 310V030 //// -RA ////// 22/20 Q1017 RE//

Saat: 22:05 (19:05 UTC)

Tahmin

Rapor saat 17:00 UTC de 2 saat ve 5 dakika önce yapıldı.
Ayın 18'si saat 18 UTC'den ayın 19'si saat 03 UTC'ye kadar geçerli Tahmin
Rüzgar kuzeybatıdan 8 kt
Görüş mesafesi 10 km veya daha fazla
1800 ft yükseklikte az bulutlu
6000 ft yükseklikte parçalı çok bulutlu
Olasılık 30% :
Geçici
ayın 18'si saat 18 UTC'den ayın 19'si saat 03 UTC'ye kadar
Görüş mesafesi: 7000 m
yağmur

TAF: LGKP 181700Z 1818/1903 32008KT 9999 FEW018 BKN060 PROB30 TEMPO 1818/1903 7000 RA

4.000'den fazla havaalanı için hava durumu gözlemleri ve tahminleri (METAR ve TAF raporları).

Kullanılabilir istasyonlar harita üzerinde sarı ve kırmızı noktalarla gösterilir.

İstasyonun adını görmek için fareyi noktanın üzerinde gezdirin.

Sonrasında hava gözlem ve tahminlerini görmek için tıklayın.

Haritayı değiştirmek için: yaklaştırmak için siyah artı işaretli yeşil düğmeye ve uzaklaştırmak için de eksi işaretli düğmeye hızla tıklayın; bitişik haritalar için yeşil okları kullanın.


METAR-TAF: